sensor_id;sensor_type;location;lat;lon;timestamp;P1;durP1;ratioP1;P2;durP2;ratioP2
69310;SDS011;56430;48.154;16.458;2023-02-24T00:01:13;28.35;;;11.77;;
69310;SDS011;56430;48.154;16.458;2023-02-24T00:04:01;24.97;;;11.60;;
69310;SDS011;56430;48.154;16.458;2023-02-24T00:06:41;28.02;;;12.35;;
69310;SDS011;56430;48.154;16.458;2023-02-24T00:09:09;26.35;;;11.70;;
69310;SDS011;56430;48.154;16.458;2023-02-24T00:11:38;28.55;;;11.70;;
69310;SDS011;56430;48.154;16.458;2023-02-24T00:14:07;32.80;;;13.40;;
69310;SDS011;56430;48.154;16.458;2023-02-24T00:16:34;33.53;;;12.57;;
69310;SDS011;56430;48.154;16.458;2023-02-24T00:19:02;29.13;;;12.07;;
69310;SDS011;56430;48.154;16.458;2023-02-24T00:21:32;25.25;;;11.38;;
69310;SDS011;56430;48.154;16.458;2023-02-24T00:23:59;26.25;;;12.00;;
69310;SDS011;56430;48.154;16.458;2023-02-24T00:26:26;30.33;;;12.40;;
69310;SDS011;56430;48.154;16.458;2023-02-24T00:28:55;28.43;;;11.60;;
69310;SDS011;56430;48.154;16.458;2023-02-24T00:31:25;24.90;;;11.30;;
69310;SDS011;56430;48.154;16.458;2023-02-24T00:33:54;28.42;;;12.60;;
69310;SDS011;56430;48.154;16.458;2023-02-24T00:36:21;27.65;;;12.75;;
69310;SDS011;56430;48.154;16.458;2023-02-24T00:38:49;26.80;;;11.70;;
69310;SDS011;56430;48.154;16.458;2023-02-24T00:41:23;26.97;;;12.53;;
69310;SDS011;56430;48.154;16.458;2023-02-24T00:43:54;28.63;;;12.60;;
69310;SDS011;56430;48.154;16.458;2023-02-24T00:46:24;28.90;;;12.40;;
69310;SDS011;56430;48.154;16.458;2023-02-24T00:48:56;27.15;;;12.48;;
69310;SDS011;56430;48.154;16.458;2023-02-24T00:51:23;31.88;;;13.52;;
69310;SDS011;56430;48.154;16.458;2023-02-24T00:53:52;28.97;;;12.50;;
69310;SDS011;56430;48.154;16.458;2023-02-24T00:56:20;27.63;;;12.60;;
69310;SDS011;56430;48.154;16.458;2023-02-24T00:58:47;28.67;;;11.52;;
69310;SDS011;56430;48.154;16.458;2023-02-24T01:01:15;29.13;;;12.68;;
69310;SDS011;56430;48.154;16.458;2023-02-24T01:03:44;29.05;;;13.38;;
69310;SDS011;56430;48.154;16.458;2023-02-24T01:06:13;28.40;;;12.20;;
69310;SDS011;56430;48.154;16.458;2023-02-24T01:08:40;31.77;;;12.98;;
69310;SDS011;56430;48.154;16.458;2023-02-24T01:11:12;27.13;;;12.57;;
69310;SDS011;56430;48.154;16.458;2023-02-24T01:13:56;28.08;;;12.20;;
69310;SDS011;56430;48.154;16.458;2023-02-24T01:16:23;28.83;;;11.95;;
69310;SDS011;56430;48.154;16.458;2023-02-24T01:18:51;29.80;;;13.20;;
69310;SDS011;56430;48.154;16.458;2023-02-24T01:21:18;32.72;;;13.82;;
69310;SDS011;56430;48.154;16.458;2023-02-24T01:23:46;27.05;;;12.23;;
69310;SDS011;56430;48.154;16.458;2023-02-24T01:26:13;30.42;;;13.20;;
69310;SDS011;56430;48.154;16.458;2023-02-24T01:28:40;33.40;;;13.60;;
69310;SDS011;56430;48.154;16.458;2023-02-24T01:31:07;30.27;;;13.27;;
69310;SDS011;56430;48.154;16.458;2023-02-24T01:33:34;27.05;;;12.18;;
69310;SDS011;56430;48.154;16.458;2023-02-24T01:36:10;31.48;;;13.15;;
69310;SDS011;56430;48.154;16.458;2023-02-24T01:38:37;30.73;;;13.75;;
69310;SDS011;56430;48.154;16.458;2023-02-24T01:41:07;29.38;;;12.88;;
69310;SDS011;56430;48.154;16.458;2023-02-24T01:46:16;26.95;;;12.23;;
69310;SDS011;56430;48.154;16.458;2023-02-24T01:48:48;28.25;;;12.15;;
69310;SDS011;56430;48.154;16.458;2023-02-24T01:51:16;30.52;;;11.82;;
69310;SDS011;56430;48.154;16.458;2023-02-24T01:53:43;28.33;;;12.18;;
69310;SDS011;56430;48.154;16.458;2023-02-24T01:56:11;30.40;;;13.30;;
69310;SDS011;56430;48.154;16.458;2023-02-24T01:58:40;27.45;;;12.20;;
69310;SDS011;56430;48.154;16.458;2023-02-24T02:01:07;33.03;;;13.27;;
69310;SDS011;56430;48.154;16.458;2023-02-24T02:03:35;27.35;;;12.13;;
69310;SDS011;56430;48.154;16.458;2023-02-24T02:06:04;34.10;;;14.05;;
69310;SDS011;56430;48.154;16.458;2023-02-24T02:08:33;29.87;;;13.07;;
69310;SDS011;56430;48.154;16.458;2023-02-24T02:11:04;28.05;;;11.63;;
69310;SDS011;56430;48.154;16.458;2023-02-24T02:13:31;30.77;;;13.50;;
69310;SDS011;56430;48.154;16.458;2023-02-24T02:16:13;28.17;;;12.48;;
69310;SDS011;56430;48.154;16.458;2023-02-24T02:18:46;31.17;;;12.77;;
69310;SDS011;56430;48.154;16.458;2023-02-24T02:24:13;30.10;;;12.80;;
69310;SDS011;56430;48.154;16.458;2023-02-24T02:32:25;32.17;;;12.63;;
69310;SDS011;56430;48.154;16.458;2023-02-24T02:34:57;28.57;;;12.77;;
69310;SDS011;56430;48.154;16.458;2023-02-24T02:37:29;31.60;;;12.80;;
69310;SDS011;56430;48.154;16.458;2023-02-24T02:40:00;27.60;;;12.13;;
69310;SDS011;56430;48.154;16.458;2023-02-24T02:42:34;30.85;;;13.07;;
69310;SDS011;56430;48.154;16.458;2023-02-24T02:45:04;26.50;;;12.20;;
69310;SDS011;56430;48.154;16.458;2023-02-24T02:47:33;31.77;;;13.50;;
69310;SDS011;56430;48.154;16.458;2023-02-24T02:50:04;29.55;;;12.65;;
69310;SDS011;56430;48.154;16.458;2023-02-24T02:52:34;28.88;;;12.52;;
69310;SDS011;56430;48.154;16.458;2023-02-24T02:55:05;28.10;;;12.30;;
69310;SDS011;56430;48.154;16.458;2023-02-24T02:57:33;32.17;;;13.10;;
69310;SDS011;56430;48.154;16.458;2023-02-24T03:00:03;27.20;;;12.07;;
69310;SDS011;56430;48.154;16.458;2023-02-24T03:02:36;33.95;;;13.27;;
69310;SDS011;56430;48.154;16.458;2023-02-24T03:05:07;28.92;;;13.32;;
69310;SDS011;56430;48.154;16.458;2023-02-24T03:07:36;30.33;;;12.50;;
69310;SDS011;56430;48.154;16.458;2023-02-24T03:10:07;28.20;;;12.48;;
69310;SDS011;56430;48.154;16.458;2023-02-24T03:12:36;32.20;;;13.00;;
69310;SDS011;56430;48.154;16.458;2023-02-24T03:15:05;30.08;;;12.63;;
69310;SDS011;56430;48.154;16.458;2023-02-24T03:17:34;26.85;;;12.20;;
69310;SDS011;56430;48.154;16.458;2023-02-24T03:20:10;32.15;;;12.25;;
69310;SDS011;56430;48.154;16.458;2023-02-24T03:22:42;29.73;;;13.00;;
69310;SDS011;56430;48.154;16.458;2023-02-24T03:25:11;30.97;;;12.87;;
69310;SDS011;56430;48.154;16.458;2023-02-24T03:27:40;31.45;;;14.15;;
69310;SDS011;56430;48.154;16.458;2023-02-24T03:30:10;30.70;;;13.07;;
69310;SDS011;56430;48.154;16.458;2023-02-24T03:32:41;29.73;;;13.70;;
69310;SDS011;56430;48.154;16.458;2023-02-24T03:35:17;29.80;;;12.73;;
69310;SDS011;56430;48.154;16.458;2023-02-24T03:37:46;30.53;;;13.53;;
69310;SDS011;56430;48.154;16.458;2023-02-24T03:40:14;29.20;;;13.27;;
69310;SDS011;56430;48.154;16.458;2023-02-24T03:42:42;34.75;;;13.52;;
69310;SDS011;56430;48.154;16.458;2023-02-24T03:45:10;28.60;;;13.10;;
69310;SDS011;56430;48.154;16.458;2023-02-24T03:47:38;31.92;;;13.60;;
69310;SDS011;56430;48.154;16.458;2023-02-24T03:50:09;28.73;;;12.77;;
69310;SDS011;56430;48.154;16.458;2023-02-24T03:52:39;29.95;;;13.05;;
69310;SDS011;56430;48.154;16.458;2023-02-24T03:55:15;32.58;;;13.57;;
69310;SDS011;56430;48.154;16.458;2023-02-24T03:57:46;32.08;;;13.80;;
69310;SDS011;56430;48.154;16.458;2023-02-24T04:00:26;32.40;;;13.48;;
69310;SDS011;56430;48.154;16.458;2023-02-24T04:03:00;30.20;;;12.87;;
69310;SDS011;56430;48.154;16.458;2023-02-24T04:05:28;35.55;;;13.88;;
69310;SDS011;56430;48.154;16.458;2023-02-24T04:08:02;36.25;;;14.45;;
69310;SDS011;56430;48.154;16.458;2023-02-24T04:10:30;31.50;;;12.63;;
69310;SDS011;56430;48.154;16.458;2023-02-24T04:12:59;32.50;;;13.02;;
69310;SDS011;56430;48.154;16.458;2023-02-24T04:15:29;31.60;;;13.80;;
69310;SDS011;56430;48.154;16.458;2023-02-24T04:17:57;32.15;;;13.75;;
69310;SDS011;56430;48.154;16.458;2023-02-24T04:20:29;31.98;;;13.48;;
69310;SDS011;56430;48.154;16.458;2023-02-24T04:22:58;32.83;;;14.52;;
69310;SDS011;56430;48.154;16.458;2023-02-24T04:25:27;32.95;;;14.05;;
69310;SDS011;56430;48.154;16.458;2023-02-24T04:27:57;32.77;;;14.23;;
69310;SDS011;56430;48.154;16.458;2023-02-24T04:30:25;34.03;;;14.63;;
69310;SDS011;56430;48.154;16.458;2023-02-24T04:32:54;36.22;;;15.27;;
69310;SDS011;56430;48.154;16.458;2023-02-24T04:35:21;32.00;;;14.52;;
69310;SDS011;56430;48.154;16.458;2023-02-24T04:37:48;34.53;;;14.70;;
69310;SDS011;56430;48.154;16.458;2023-02-24T04:40:16;34.47;;;14.23;;
69310;SDS011;56430;48.154;16.458;2023-02-24T04:42:47;34.03;;;14.93;;
69310;SDS011;56430;48.154;16.458;2023-02-24T04:45:15;31.25;;;13.82;;
69310;SDS011;56430;48.154;16.458;2023-02-24T04:47:43;36.25;;;14.52;;
69310;SDS011;56430;48.154;16.458;2023-02-24T04:50:30;36.67;;;15.57;;
69310;SDS011;56430;48.154;16.458;2023-02-24T04:52:58;36.50;;;15.27;;
69310;SDS011;56430;48.154;16.458;2023-02-24T04:55:31;35.50;;;15.38;;
69310;SDS011;56430;48.154;16.458;2023-02-24T04:58:05;39.42;;;15.73;;
69310;SDS011;56430;48.154;16.458;2023-02-24T05:00:32;35.22;;;15.30;;
69310;SDS011;56430;48.154;16.458;2023-02-24T05:03:01;38.10;;;15.95;;
69310;SDS011;56430;48.154;16.458;2023-02-24T05:05:28;36.47;;;14.73;;
69310;SDS011;56430;48.154;16.458;2023-02-24T05:07:58;32.53;;;14.80;;
69310;SDS011;56430;48.154;16.458;2023-02-24T05:10:27;33.30;;;14.52;;
69310;SDS011;56430;48.154;16.458;2023-02-24T05:12:55;37.20;;;15.07;;
69310;SDS011;56430;48.154;16.458;2023-02-24T05:15:25;36.22;;;14.63;;
69310;SDS011;56430;48.154;16.458;2023-02-24T05:17:56;34.97;;;14.37;;
69310;SDS011;56430;48.154;16.458;2023-02-24T05:20:24;34.75;;;14.50;;
69310;SDS011;56430;48.154;16.458;2023-02-24T05:23:08;34.17;;;14.82;;
69310;SDS011;56430;48.154;16.458;2023-02-24T05:25:35;33.42;;;14.68;;
69310;SDS011;56430;48.154;16.458;2023-02-24T05:28:03;33.80;;;14.27;;
69310;SDS011;56430;48.154;16.458;2023-02-24T05:30:32;30.50;;;14.00;;
69310;SDS011;56430;48.154;16.458;2023-02-24T05:32:59;35.65;;;15.27;;
69310;SDS011;56430;48.154;16.458;2023-02-24T05:35:27;36.95;;;14.85;;
69310;SDS011;56430;48.154;16.458;2023-02-24T05:37:56;31.05;;;14.32;;
69310;SDS011;56430;48.154;16.458;2023-02-24T05:40:23;32.33;;;15.20;;
69310;SDS011;56430;48.154;16.458;2023-02-24T05:42:50;32.70;;;14.73;;
69310;SDS011;56430;48.154;16.458;2023-02-24T05:45:18;35.33;;;13.95;;
69310;SDS011;56430;48.154;16.458;2023-02-24T05:47:46;29.98;;;13.18;;
69310;SDS011;56430;48.154;16.458;2023-02-24T05:50:13;37.13;;;13.75;;
69310;SDS011;56430;48.154;16.458;2023-02-24T05:52:41;34.25;;;13.93;;
69310;SDS011;56430;48.154;16.458;2023-02-24T05:55:13;31.07;;;12.87;;
69310;SDS011;56430;48.154;16.458;2023-02-24T05:57:43;37.35;;;15.77;;
69310;SDS011;56430;48.154;16.458;2023-02-24T06:00:11;35.65;;;14.05;;
69310;SDS011;56430;48.154;16.458;2023-02-24T06:02:41;35.30;;;14.60;;
69310;SDS011;56430;48.154;16.458;2023-02-24T06:05:18;35.35;;;15.32;;
69310;SDS011;56430;48.154;16.458;2023-02-24T06:07:54;43.47;;;14.40;;
69310;SDS011;56430;48.154;16.458;2023-02-24T06:10:28;34.13;;;14.23;;
69310;SDS011;56430;48.154;16.458;2023-02-24T06:12:56;32.25;;;13.93;;
69310;SDS011;56430;48.154;16.458;2023-02-24T06:15:22;38.53;;;14.98;;
69310;SDS011;56430;48.154;16.458;2023-02-24T06:17:49;34.63;;;15.60;;
69310;SDS011;56430;48.154;16.458;2023-02-24T06:20:18;31.73;;;14.30;;
69310;SDS011;56430;48.154;16.458;2023-02-24T06:22:46;33.67;;;14.60;;
69310;SDS011;56430;48.154;16.458;2023-02-24T06:25:19;35.65;;;14.88;;
69310;SDS011;56430;48.154;16.458;2023-02-24T06:27:49;32.10;;;13.80;;
69310;SDS011;56430;48.154;16.458;2023-02-24T06:30:19;34.47;;;14.50;;
69310;SDS011;56430;48.154;16.458;2023-02-24T06:32:46;31.83;;;14.87;;
69310;SDS011;56430;48.154;16.458;2023-02-24T06:35:13;31.88;;;13.93;;
69310;SDS011;56430;48.154;16.458;2023-02-24T06:37:42;34.00;;;14.43;;
69310;SDS011;56430;48.154;16.458;2023-02-24T06:40:09;31.95;;;13.23;;
69310;SDS011;56430;48.154;16.458;2023-02-24T06:42:43;37.83;;;14.57;;
69310;SDS011;56430;48.154;16.458;2023-02-24T06:45:10;35.37;;;15.10;;
69310;SDS011;56430;48.154;16.458;2023-02-24T06:47:37;31.92;;;14.05;;
69310;SDS011;56430;48.154;16.458;2023-02-24T06:50:05;36.75;;;15.27;;
69310;SDS011;56430;48.154;16.458;2023-02-24T06:52:32;33.88;;;14.20;;
69310;SDS011;56430;48.154;16.458;2023-02-24T06:55:02;37.15;;;15.27;;
69310;SDS011;56430;48.154;16.458;2023-02-24T06:57:29;34.83;;;14.77;;
69310;SDS011;56430;48.154;16.458;2023-02-24T06:59:58;33.30;;;14.68;;
69310;SDS011;56430;48.154;16.458;2023-02-24T07:02:25;37.03;;;15.65;;
69310;SDS011;56430;48.154;16.458;2023-02-24T07:05:04;35.42;;;14.88;;
69310;SDS011;56430;48.154;16.458;2023-02-24T07:07:31;38.88;;;15.55;;
69310;SDS011;56430;48.154;16.458;2023-02-24T07:09:58;32.40;;;13.97;;
69310;SDS011;56430;48.154;16.458;2023-02-24T07:12:26;35.90;;;15.40;;
69310;SDS011;56430;48.154;16.458;2023-02-24T07:14:53;30.00;;;13.95;;
69310;SDS011;56430;48.154;16.458;2023-02-24T07:17:20;37.53;;;14.63;;
69310;SDS011;56430;48.154;16.458;2023-02-24T07:19:47;35.00;;;15.73;;
69310;SDS011;56430;48.154;16.458;2023-02-24T07:22:14;36.57;;;15.07;;
69310;SDS011;56430;48.154;16.458;2023-02-24T07:24:42;29.35;;;14.10;;
69310;SDS011;56430;48.154;16.458;2023-02-24T07:27:11;36.10;;;14.90;;
69310;SDS011;56430;48.154;16.458;2023-02-24T07:29:47;31.98;;;14.25;;
69310;SDS011;56430;48.154;16.458;2023-02-24T07:32:15;33.92;;;14.85;;
69310;SDS011;56430;48.154;16.458;2023-02-24T07:34:43;32.40;;;14.27;;
69310;SDS011;56430;48.154;16.458;2023-02-24T07:37:10;26.95;;;13.43;;
69310;SDS011;56430;48.154;16.458;2023-02-24T07:39:38;27.75;;;13.48;;
69310;SDS011;56430;48.154;16.458;2023-02-24T07:42:08;30.35;;;13.95;;
69310;SDS011;56430;48.154;16.458;2023-02-24T07:44:36;32.47;;;13.80;;
69310;SDS011;56430;48.154;16.458;2023-02-24T07:47:05;25.70;;;12.20;;
69310;SDS011;56430;48.154;16.458;2023-02-24T07:49:33;26.95;;;13.00;;
69310;SDS011;56430;48.154;16.458;2023-02-24T07:52:00;27.88;;;13.13;;
69310;SDS011;56430;48.154;16.458;2023-02-24T07:54:27;28.73;;;12.50;;
69310;SDS011;56430;48.154;16.458;2023-02-24T07:56:54;26.65;;;13.07;;
69310;SDS011;56430;48.154;16.458;2023-02-24T07:59:24;24.97;;;12.80;;
69310;SDS011;56430;48.154;16.458;2023-02-24T08:01:51;22.67;;;12.80;;
69310;SDS011;56430;48.154;16.458;2023-02-24T08:04:22;26.95;;;13.32;;
69310;SDS011;56430;48.154;16.458;2023-02-24T08:06:50;23.90;;;12.98;;
69310;SDS011;56430;48.154;16.458;2023-02-24T08:09:22;20.83;;;11.10;;
69310;SDS011;56430;48.154;16.458;2023-02-24T08:12:03;23.27;;;10.83;;
69310;SDS011;56430;48.154;16.458;2023-02-24T08:14:32;20.55;;;11.52;;
69310;SDS011;56430;48.154;16.458;2023-02-24T08:17:00;20.13;;;11.10;;
69310;SDS011;56430;48.154;16.458;2023-02-24T08:19:32;21.08;;;11.48;;
69310;SDS011;56430;48.154;16.458;2023-02-24T08:22:04;23.98;;;11.63;;
69310;SDS011;56430;48.154;16.458;2023-02-24T08:24:44;21.47;;;11.70;;
69310;SDS011;56430;48.154;16.458;2023-02-24T08:27:15;25.58;;;11.65;;
69310;SDS011;56430;48.154;16.458;2023-02-24T08:29:46;27.55;;;13.90;;
69310;SDS011;56430;48.154;16.458;2023-02-24T08:32:23;27.55;;;14.13;;
69310;SDS011;56430;48.154;16.458;2023-02-24T08:34:52;25.83;;;13.48;;
69310;SDS011;56430;48.154;16.458;2023-02-24T08:37:27;23.97;;;12.23;;
69310;SDS011;56430;48.154;16.458;2023-02-24T08:39:57;25.73;;;13.25;;
69310;SDS011;56430;48.154;16.458;2023-02-24T08:42:24;32.25;;;12.95;;
69310;SDS011;56430;48.154;16.458;2023-02-24T08:44:59;24.20;;;12.40;;
69310;SDS011;56430;48.154;16.458;2023-02-24T08:47:26;27.20;;;12.30;;
69310;SDS011;56430;48.154;16.458;2023-02-24T08:49:57;25.80;;;11.80;;
69310;SDS011;56430;48.154;16.458;2023-02-24T08:52:26;24.05;;;11.77;;
69310;SDS011;56430;48.154;16.458;2023-02-24T08:54:53;23.50;;;11.93;;
69310;SDS011;56430;48.154;16.458;2023-02-24T08:57:24;24.08;;;12.68;;
69310;SDS011;56430;48.154;16.458;2023-02-24T08:59:51;22.25;;;12.60;;
69310;SDS011;56430;48.154;16.458;2023-02-24T09:02:22;25.87;;;11.63;;
69310;SDS011;56430;48.154;16.458;2023-02-24T09:04:52;26.13;;;12.38;;
69310;SDS011;56430;48.154;16.458;2023-02-24T09:07:21;23.50;;;12.15;;
69310;SDS011;56430;48.154;16.458;2023-02-24T09:09:49;25.63;;;12.38;;
69310;SDS011;56430;48.154;16.458;2023-02-24T09:12:21;27.48;;;14.02;;
69310;SDS011;56430;48.154;16.458;2023-02-24T09:14:49;24.60;;;11.63;;
69310;SDS011;56430;48.154;16.458;2023-02-24T09:17:20;22.20;;;11.95;;
69310;SDS011;56430;48.154;16.458;2023-02-24T09:20:05;22.98;;;11.63;;
69310;SDS011;56430;48.154;16.458;2023-02-24T09:22:51;22.75;;;10.50;;
69310;SDS011;56430;48.154;16.458;2023-02-24T09:25:27;22.30;;;11.88;;
69310;SDS011;56430;48.154;16.458;2023-02-24T09:28:07;21.63;;;11.47;;
69310;SDS011;56430;48.154;16.458;2023-02-24T09:30:34;24.05;;;12.13;;
69310;SDS011;56430;48.154;16.458;2023-02-24T09:33:05;24.27;;;11.07;;
69310;SDS011;56430;48.154;16.458;2023-02-24T09:35:33;23.60;;;11.52;;
69310;SDS011;56430;48.154;16.458;2023-02-24T09:38:03;22.95;;;11.02;;
69310;SDS011;56430;48.154;16.458;2023-02-24T09:40:31;22.47;;;10.50;;
69310;SDS011;56430;48.154;16.458;2023-02-24T09:43:05;18.85;;;9.77;;
69310;SDS011;56430;48.154;16.458;2023-02-24T09:45:35;18.17;;;10.25;;
69310;SDS011;56430;48.154;16.458;2023-02-24T09:48:04;18.30;;;9.63;;
69310;SDS011;56430;48.154;16.458;2023-02-24T09:50:37;19.70;;;9.30;;
69310;SDS011;56430;48.154;16.458;2023-02-24T09:53:13;18.00;;;9.03;;
69310;SDS011;56430;48.154;16.458;2023-02-24T09:55:43;19.02;;;9.02;;
69310;SDS011;56430;48.154;16.458;2023-02-24T09:58:26;18.98;;;8.65;;
69310;SDS011;56430;48.154;16.458;2023-02-24T10:00:57;18.88;;;8.80;;
69310;SDS011;56430;48.154;16.458;2023-02-24T10:03:45;21.02;;;7.93;;
69310;SDS011;56430;48.154;16.458;2023-02-24T10:06:17;15.30;;;8.63;;
69310;SDS011;56430;48.154;16.458;2023-02-24T10:08:53;17.13;;;8.57;;
69310;SDS011;56430;48.154;16.458;2023-02-24T10:11:21;17.23;;;8.20;;
69310;SDS011;56430;48.154;16.458;2023-02-24T10:13:57;16.90;;;8.20;;
69310;SDS011;56430;48.154;16.458;2023-02-24T10:16:26;14.80;;;7.38;;
69310;SDS011;56430;48.154;16.458;2023-02-24T10:19:10;14.00;;;7.37;;
69310;SDS011;56430;48.154;16.458;2023-02-24T10:21:41;16.88;;;8.23;;
69310;SDS011;56430;48.154;16.458;2023-02-24T10:24:28;20.02;;;9.02;;
69310;SDS011;56430;48.154;16.458;2023-02-24T10:27:00;16.75;;;7.63;;
69310;SDS011;56430;48.154;16.458;2023-02-24T10:29:37;15.65;;;8.10;;
69310;SDS011;56430;48.154;16.458;2023-02-24T10:32:12;15.03;;;7.60;;
69310;SDS011;56430;48.154;16.458;2023-02-24T10:34:48;19.63;;;6.57;;
69310;SDS011;56430;48.154;16.458;2023-02-24T10:37:15;15.40;;;6.22;;
69310;SDS011;56430;48.154;16.458;2023-02-24T10:39:45;10.93;;;6.70;;
69310;SDS011;56430;48.154;16.458;2023-02-24T10:42:21;13.27;;;6.13;;
69310;SDS011;56430;48.154;16.458;2023-02-24T10:44:49;9.87;;;6.33;;
69310;SDS011;56430;48.154;16.458;2023-02-24T10:47:22;11.38;;;5.50;;
69310;SDS011;56430;48.154;16.458;2023-02-24T10:49:56;11.38;;;5.30;;
69310;SDS011;56430;48.154;16.458;2023-02-24T10:52:24;11.38;;;5.45;;
69310;SDS011;56430;48.154;16.458;2023-02-24T10:55:40;11.13;;;5.30;;
69310;SDS011;56430;48.154;16.458;2023-02-24T10:58:39;11.27;;;5.83;;
69310;SDS011;56430;48.154;16.458;2023-02-24T11:01:14;11.53;;;6.50;;
69310;SDS011;56430;48.154;16.458;2023-02-24T11:03:46;12.60;;;5.60;;
69310;SDS011;56430;48.154;16.458;2023-02-24T11:06:26;11.43;;;5.82;;
69310;SDS011;56430;48.154;16.458;2023-02-24T11:09:20;9.27;;;4.60;;
69310;SDS011;56430;48.154;16.458;2023-02-24T11:12:04;10.70;;;4.40;;
69310;SDS011;56430;48.154;16.458;2023-02-24T11:14:50;9.10;;;4.97;;
69310;SDS011;56430;48.154;16.458;2023-02-24T11:17:35;8.90;;;5.00;;
69310;SDS011;56430;48.154;16.458;2023-02-24T11:20:03;12.77;;;4.93;;
69310;SDS011;56430;48.154;16.458;2023-02-24T11:22:36;12.20;;;5.30;;
69310;SDS011;56430;48.154;16.458;2023-02-24T11:25:04;10.75;;;5.57;;
69310;SDS011;56430;48.154;16.458;2023-02-24T11:27:33;15.60;;;4.40;;
69310;SDS011;56430;48.154;16.458;2023-02-24T11:30:03;9.77;;;3.37;;
69310;SDS011;56430;48.154;16.458;2023-02-24T11:32:42;8.88;;;3.28;;
69310;SDS011;56430;48.154;16.458;2023-02-24T11:35:15;8.50;;;3.10;;
69310;SDS011;56430;48.154;16.458;2023-02-24T11:37:44;7.72;;;2.90;;
69310;SDS011;56430;48.154;16.458;2023-02-24T11:40:13;5.82;;;2.70;;
69310;SDS011;56430;48.154;16.458;2023-02-24T11:42:45;6.80;;;2.43;;
69310;SDS011;56430;48.154;16.458;2023-02-24T11:45:18;5.88;;;2.30;;
69310;SDS011;56430;48.154;16.458;2023-02-24T11:47:48;7.13;;;2.50;;
69310;SDS011;56430;48.154;16.458;2023-02-24T11:53:13;6.65;;;2.13;;
69310;SDS011;56430;48.154;16.458;2023-02-24T11:55:43;6.00;;;2.20;;
69310;SDS011;56430;48.154;16.458;2023-02-24T11:58:13;6.43;;;2.03;;
69310;SDS011;56430;48.154;16.458;2023-02-24T12:00:49;5.55;;;2.10;;
69310;SDS011;56430;48.154;16.458;2023-02-24T12:03:21;8.75;;;2.65;;
69310;SDS011;56430;48.154;16.458;2023-02-24T12:05:52;12.18;;;3.30;;
69310;SDS011;56430;48.154;16.458;2023-02-24T12:08:23;12.07;;;4.23;;
69310;SDS011;56430;48.154;16.458;2023-02-24T12:10:52;10.25;;;4.15;;
69310;SDS011;56430;48.154;16.458;2023-02-24T12:13:27;11.73;;;4.10;;
69310;SDS011;56430;48.154;16.458;2023-02-24T12:15:56;11.45;;;4.97;;
69310;SDS011;56430;48.154;16.458;2023-02-24T12:18:25;10.07;;;5.53;;
69310;SDS011;56430;48.154;16.458;2023-02-24T12:20:53;18.53;;;6.70;;
69310;SDS011;56430;48.154;16.458;2023-02-24T12:23:21;13.57;;;6.68;;
69310;SDS011;56430;48.154;16.458;2023-02-24T12:25:53;15.55;;;7.25;;
69310;SDS011;56430;48.154;16.458;2023-02-24T12:28:27;16.30;;;7.57;;
69310;SDS011;56430;48.154;16.458;2023-02-24T12:30:59;17.95;;;7.90;;
69310;SDS011;56430;48.154;16.458;2023-02-24T12:33:36;16.40;;;7.97;;
69310;SDS011;56430;48.154;16.458;2023-02-24T12:36:11;18.10;;;8.68;;
69310;SDS011;56430;48.154;16.458;2023-02-24T12:38:47;15.43;;;7.63;;
69310;SDS011;56430;48.154;16.458;2023-02-24T12:41:23;16.40;;;7.38;;
69310;SDS011;56430;48.154;16.458;2023-02-24T12:43:54;17.40;;;7.15;;
69310;SDS011;56430;48.154;16.458;2023-02-24T12:46:24;13.97;;;7.27;;
69310;SDS011;56430;48.154;16.458;2023-02-24T12:49:16;16.67;;;6.90;;
69310;SDS011;56430;48.154;16.458;2023-02-24T12:51:49;14.55;;;6.50;;
69310;SDS011;56430;48.154;16.458;2023-02-24T12:54:23;13.50;;;6.32;;
69310;SDS011;56430;48.154;16.458;2023-02-24T12:56:54;14.70;;;6.57;;
69310;SDS011;56430;48.154;16.458;2023-02-24T12:59:26;15.73;;;6.53;;
69310;SDS011;56430;48.154;16.458;2023-02-24T13:01:54;15.15;;;6.28;;
69310;SDS011;56430;48.154;16.458;2023-02-24T13:07:16;11.68;;;6.13;;
69310;SDS011;56430;48.154;16.458;2023-02-24T13:09:50;16.63;;;6.22;;
69310;SDS011;56430;48.154;16.458;2023-02-24T13:12:24;14.73;;;6.10;;
69310;SDS011;56430;48.154;16.458;2023-02-24T13:14:54;14.50;;;5.95;;
69310;SDS011;56430;48.154;16.458;2023-02-24T13:17:22;18.27;;;6.30;;
69310;SDS011;56430;48.154;16.458;2023-02-24T13:19:54;13.23;;;5.93;;
69310;SDS011;56430;48.154;16.458;2023-02-24T13:22:23;14.20;;;5.85;;
69310;SDS011;56430;48.154;16.458;2023-02-24T13:24:58;28.20;;;7.97;;
69310;SDS011;56430;48.154;16.458;2023-02-24T13:27:27;14.27;;;6.68;;
69310;SDS011;56430;48.154;16.458;2023-02-24T13:29:56;17.40;;;7.15;;
69310;SDS011;56430;48.154;16.458;2023-02-24T13:32:28;17.05;;;6.97;;
69310;SDS011;56430;48.154;16.458;2023-02-24T13:34:57;17.48;;;7.53;;
69310;SDS011;56430;48.154;16.458;2023-02-24T13:37:26;17.10;;;7.93;;
69310;SDS011;56430;48.154;16.458;2023-02-24T13:39:53;20.10;;;8.70;;
69310;SDS011;56430;48.154;16.458;2023-02-24T13:42:21;18.80;;;9.13;;
69310;SDS011;56430;48.154;16.458;2023-02-24T13:44:50;27.50;;;10.02;;
69310;SDS011;56430;48.154;16.458;2023-02-24T13:50:09;21.67;;;8.57;;
69310;SDS011;56430;48.154;16.458;2023-02-24T13:52:46;21.52;;;9.50;;
69310;SDS011;56430;48.154;16.458;2023-02-24T13:58:18;17.23;;;8.25;;
69310;SDS011;56430;48.154;16.458;2023-02-24T14:00:51;16.80;;;8.02;;
69310;SDS011;56430;48.154;16.458;2023-02-24T14:03:23;17.63;;;8.33;;
69310;SDS011;56430;48.154;16.458;2023-02-24T14:05:52;18.23;;;8.73;;
69310;SDS011;56430;48.154;16.458;2023-02-24T14:08:20;20.17;;;8.25;;
69310;SDS011;56430;48.154;16.458;2023-02-24T14:10:50;17.90;;;8.45;;
69310;SDS011;56430;48.154;16.458;2023-02-24T14:13:18;21.38;;;9.07;;
69310;SDS011;56430;48.154;16.458;2023-02-24T14:15:49;19.80;;;9.20;;
69310;SDS011;56430;48.154;16.458;2023-02-24T14:18:19;21.42;;;10.07;;
69310;SDS011;56430;48.154;16.458;2023-02-24T14:20:46;20.17;;;9.88;;
69310;SDS011;56430;48.154;16.458;2023-02-24T14:23:21;22.63;;;10.82;;
69310;SDS011;56430;48.154;16.458;2023-02-24T14:25:51;26.92;;;10.57;;
69310;SDS011;56430;48.154;16.458;2023-02-24T14:28:20;22.87;;;10.40;;
69310;SDS011;56430;48.154;16.458;2023-02-24T14:30:50;23.38;;;10.90;;
69310;SDS011;56430;48.154;16.458;2023-02-24T14:33:20;21.70;;;10.57;;
69310;SDS011;56430;48.154;16.458;2023-02-24T14:35:49;24.73;;;11.52;;
69310;SDS011;56430;48.154;16.458;2023-02-24T14:38:31;27.45;;;11.88;;
69310;SDS011;56430;48.154;16.458;2023-02-24T14:40:58;21.17;;;10.80;;
69310;SDS011;56430;48.154;16.458;2023-02-24T14:43:26;22.95;;;11.27;;
69310;SDS011;56430;48.154;16.458;2023-02-24T14:45:54;22.73;;;11.77;;
69310;SDS011;56430;48.154;16.458;2023-02-24T14:48:23;22.88;;;10.73;;
69310;SDS011;56430;48.154;16.458;2023-02-24T14:50:50;21.48;;;10.65;;
69310;SDS011;56430;48.154;16.458;2023-02-24T14:53:18;22.97;;;11.07;;
69310;SDS011;56430;48.154;16.458;2023-02-24T14:55:49;25.60;;;11.63;;
69310;SDS011;56430;48.154;16.458;2023-02-24T14:58:18;25.48;;;12.13;;